createdAt,value
2019-05-29T00:01:18.573Z,6.37
2019-05-29T00:03:46.331Z,6.30
2019-05-29T00:06:18.568Z,5.50
2019-05-29T00:08:50.371Z,5.37
2019-05-29T00:11:21.949Z,6.63
2019-05-29T00:13:55.160Z,8.30
2019-05-29T00:16:26.997Z,5.80
2019-05-29T00:18:58.591Z,4.97
2019-05-29T00:21:30.156Z,5.37
2019-05-29T00:24:01.732Z,6.87
2019-05-29T00:26:33.353Z,6.60
2019-05-29T00:29:05.645Z,4.60
2019-05-29T00:31:37.353Z,4.67
2019-05-29T00:34:09.022Z,4.87
2019-05-29T00:36:40.593Z,3.43
2019-05-29T00:39:12.733Z,3.87
2019-05-29T00:41:45.083Z,5.63
2019-05-29T00:44:17.419Z,6.50
2019-05-29T00:46:49.960Z,3.90
2019-05-29T00:49:21.523Z,3.90
2019-05-29T00:51:53.147Z,4.33
2019-05-29T00:54:24.727Z,3.80
2019-05-29T00:56:56.309Z,6.50
2019-05-29T00:59:27.862Z,4.80
2019-05-29T01:01:59.444Z,3.80
2019-05-29T01:04:31.015Z,5.70
2019-05-29T01:07:02.637Z,5.60
2019-05-29T01:09:34.421Z,4.50
2019-05-29T01:12:06.008Z,3.80
2019-05-29T01:14:49.585Z,6.17
2019-05-29T01:17:12.189Z,2.90
2019-05-29T01:19:43.905Z,4.97
2019-05-29T01:22:16.564Z,4.00
2019-05-29T01:24:48.136Z,3.73
2019-05-29T01:27:20.819Z,3.77
2019-05-29T01:29:52.485Z,3.40
2019-05-29T01:32:24.036Z,4.80
2019-05-29T01:34:55.718Z,3.10
2019-05-29T01:37:27.309Z,3.57
2019-05-29T01:39:58.907Z,4.30
2019-05-29T01:42:30.459Z,3.53
2019-05-29T01:45:07.890Z,3.77
2019-05-29T01:47:35.327Z,4.20
2019-05-29T01:50:07.331Z,4.40
2019-05-29T01:52:38.942Z,6.63
2019-05-29T01:55:10.685Z,3.80
2019-05-29T01:57:42.307Z,3.53
2019-05-29T02:00:15.729Z,4.83
2019-05-29T02:02:47.451Z,3.90
2019-05-29T02:05:19.986Z,5.83
2019-05-29T02:07:51.799Z,4.53
2019-05-29T02:10:24.352Z,3.70
2019-05-29T02:12:56.319Z,3.73
2019-05-29T02:15:33.523Z,4.37
2019-05-29T02:18:01.182Z,3.53
2019-05-29T02:20:32.750Z,6.37
2019-05-29T02:23:04.285Z,4.83
2019-05-29T02:25:35.868Z,5.40
2019-05-29T02:28:07.427Z,4.30
2019-05-29T02:30:39.007Z,10.03
2019-05-29T02:33:10.567Z,5.00
2019-05-29T02:35:42.173Z,5.03
2019-05-29T02:38:13.729Z,5.87
2019-05-29T02:40:45.292Z,4.07
2019-05-29T02:43:16.858Z,7.30
2019-05-29T02:45:54.423Z,5.60
2019-05-29T02:48:23.165Z,4.47
2019-05-29T02:50:54.987Z,4.03
2019-05-29T02:53:26.540Z,4.27
2019-05-29T02:55:58.111Z,4.57
2019-05-29T02:58:30.264Z,5.47
2019-05-29T03:01:02.986Z,5.20
2019-05-29T03:03:39.534Z,4.70
2019-05-29T03:06:08.056Z,5.90
2019-05-29T03:08:39.659Z,4.23
2019-05-29T03:11:11.314Z,4.80
2019-05-29T03:13:42.919Z,3.87
2019-05-29T03:16:14.487Z,4.30
2019-05-29T03:18:46.079Z,9.90
2019-05-29T03:21:17.662Z,5.00
2019-05-29T03:23:49.249Z,5.27
2019-05-29T03:26:24.735Z,5.00
2019-05-29T03:28:54.101Z,7.23
2019-05-29T03:31:29.911Z,4.40
2019-05-29T03:33:58.934Z,4.57
2019-05-29T03:36:35.793Z,10.40
2019-05-29T03:39:05.479Z,3.43
2019-05-29T03:41:38.753Z,3.90
2019-05-29T03:44:10.700Z,6.10
2019-05-29T03:46:45.592Z,5.60
2019-05-29T03:49:15.576Z,3.37
2019-05-29T03:51:58.629Z,6.17
2019-05-29T03:54:30.803Z,4.93
2019-05-29T03:57:03.481Z,3.63
2019-05-29T03:59:37.025Z,4.27
2019-05-29T04:02:08.539Z,6.50
2019-05-29T04:04:40.139Z,4.13
2019-05-29T04:07:11.722Z,4.37
2019-05-29T04:09:43.374Z,4.30
2019-05-29T04:12:18.826Z,6.50
2019-05-29T04:14:49.271Z,5.60
2019-05-29T04:17:23.366Z,3.43
2019-05-29T04:19:54.921Z,4.93
2019-05-29T04:22:34.384Z,4.73
2019-05-29T04:25:07.589Z,7.37
2019-05-29T04:27:42.222Z,7.03
2019-05-29T04:30:15.720Z,4.10
2019-05-29T04:32:47.300Z,9.33
2019-05-29T04:35:18.872Z,4.10
2019-05-29T04:37:50.468Z,4.67
2019-05-29T04:40:22.029Z,4.97
2019-05-29T04:42:53.619Z,6.37
2019-05-29T04:45:25.172Z,6.17
2019-05-29T04:47:56.740Z,4.60
2019-05-29T04:50:29.127Z,6.70
2019-05-29T04:53:00.963Z,8.80
2019-05-29T04:55:32.749Z,4.53
2019-05-29T04:58:04.331Z,6.50
2019-05-29T05:00:37.154Z,6.47
2019-05-29T05:03:08.925Z,7.33
2019-05-29T05:05:40.484Z,5.70
2019-05-29T05:08:12.119Z,6.10
2019-05-29T05:10:43.879Z,7.80
2019-05-29T05:13:15.464Z,6.77
2019-05-29T05:15:47.929Z,8.33
2019-05-29T05:18:19.510Z,6.70
2019-05-29T05:20:51.119Z,9.20
2019-05-29T05:23:22.751Z,6.67
2019-05-29T05:25:54.312Z,6.90
2019-05-29T05:28:25.938Z,8.40
2019-05-29T05:30:57.484Z,7.20
2019-05-29T05:33:30.375Z,9.53
2019-05-29T05:36:02.065Z,11.30
2019-05-29T05:38:34.655Z,12.30
2019-05-29T05:41:06.312Z,8.33
2019-05-29T05:43:38.910Z,9.57
2019-05-29T05:46:10.550Z,9.50
2019-05-29T05:48:42.130Z,8.43
2019-05-29T05:51:13.683Z,9.10
2019-05-29T05:53:45.283Z,7.70
2019-05-29T05:56:16.843Z,11.53
2019-05-29T05:58:48.441Z,11.00
2019-05-29T06:01:20.012Z,8.60
2019-05-29T06:03:51.912Z,8.73
2019-05-29T06:06:23.749Z,9.20
2019-05-29T06:08:55.324Z,10.20
2019-05-29T06:11:26.923Z,9.60
2019-05-29T06:13:58.494Z,9.43
2019-05-29T06:16:30.091Z,9.83
2019-05-29T06:19:01.648Z,10.57
2019-05-29T06:21:33.224Z,9.30
2019-05-29T06:24:05.227Z,9.43
2019-05-29T06:26:36.859Z,11.10
2019-05-29T06:29:08.509Z,9.53
2019-05-29T06:31:41.343Z,9.10
2019-05-29T06:34:14.012Z,8.57
2019-05-29T06:36:48.127Z,10.40
2019-05-29T06:39:18.888Z,9.50
2019-05-29T06:41:51.571Z,11.70
2019-05-29T06:44:23.136Z,8.60
2019-05-29T06:46:54.759Z,11.17
2019-05-29T06:49:26.322Z,9.20
2019-05-29T06:51:57.889Z,8.73
2019-05-29T06:54:29.467Z,8.70
2019-05-29T06:57:01.058Z,9.47
2019-05-29T06:59:32.631Z,10.30
2019-05-29T07:02:04.208Z,10.10
2019-05-29T07:04:36.244Z,8.97
2019-05-29T07:07:07.912Z,9.03
2019-05-29T07:09:39.518Z,9.00
2019-05-29T07:12:11.097Z,8.03
2019-05-29T07:14:42.668Z,9.30
2019-05-29T07:17:14.289Z,8.00
2019-05-29T07:19:57.791Z,8.27
2019-05-29T07:22:19.227Z,8.70
2019-05-29T07:24:50.887Z,7.60
2019-05-29T07:27:22.479Z,9.57
2019-05-29T07:29:54.048Z,9.30
2019-05-29T07:32:25.635Z,8.00
2019-05-29T07:35:03.588Z,8.80
2019-05-29T07:37:31.611Z,7.60
2019-05-29T07:40:03.175Z,8.60
2019-05-29T07:42:34.748Z,8.03
2019-05-29T07:45:06.783Z,7.07
2019-05-29T07:47:38.473Z,10.93
2019-05-29T07:50:10.398Z,6.73
2019-05-29T07:52:43.325Z,8.10
2019-05-29T07:55:15.641Z,7.87
2019-05-29T07:57:47.240Z,7.20
2019-05-29T08:00:18.803Z,7.50
2019-05-29T08:02:50.403Z,7.50
2019-05-29T08:05:22.007Z,8.53
2019-05-29T08:07:53.666Z,7.77
2019-05-29T08:10:25.552Z,6.77
2019-05-29T08:12:57.172Z,7.47
2019-05-29T08:15:28.811Z,6.20
2019-05-29T08:18:00.415Z,7.00
2019-05-29T08:20:31.993Z,6.30
2019-05-29T08:23:03.595Z,6.10
2019-05-29T08:25:35.212Z,6.83
2019-05-29T08:28:06.800Z,6.13
2019-05-29T08:30:38.400Z,5.97
2019-05-29T08:33:10.123Z,6.20
2019-05-29T08:35:42.974Z,6.07
2019-05-29T08:38:14.890Z,5.90
2019-05-29T08:40:47.428Z,4.83
2019-05-29T08:43:19.160Z,6.23
2019-05-29T08:45:52.682Z,5.60
2019-05-29T08:48:24.042Z,5.10
2019-05-29T08:50:55.628Z,5.23
2019-05-29T08:53:27.270Z,5.37
2019-05-29T08:55:58.799Z,5.40
2019-05-29T08:58:30.357Z,5.97
2019-05-29T09:01:01.982Z,6.10
2019-05-29T09:03:33.551Z,5.63
2019-05-29T09:06:09.104Z,4.57
2019-05-29T09:08:38.459Z,5.00
2019-05-29T09:11:10.056Z,4.90
2019-05-29T09:13:41.653Z,5.40
2019-05-29T09:16:13.257Z,5.33
2019-05-29T09:18:44.860Z,5.80
2019-05-29T09:21:18.009Z,5.40
2019-05-29T09:23:50.248Z,5.57
2019-05-29T09:26:24.642Z,6.23
2019-05-29T09:28:55.146Z,5.90
2019-05-29T09:31:26.724Z,5.37
2019-05-29T09:33:58.333Z,5.67
2019-05-29T09:36:30.044Z,5.07
2019-05-29T09:39:01.653Z,6.00
2019-05-29T09:41:34.588Z,5.20
2019-05-29T09:44:06.364Z,5.87
2019-05-29T09:46:37.998Z,6.77
2019-05-29T09:49:09.589Z,4.87
2019-05-29T09:51:41.189Z,4.97
2019-05-29T09:54:12.802Z,5.97
2019-05-29T09:56:44.445Z,5.50
2019-05-29T09:59:16.987Z,5.37
2019-05-29T10:01:48.628Z,4.80
2019-05-29T10:04:20.200Z,5.27
2019-05-29T10:06:53.179Z,4.10
2019-05-29T10:09:25.173Z,5.37
2019-05-29T10:12:00.892Z,5.10
2019-05-29T10:14:30.077Z,4.67
2019-05-29T10:17:07.719Z,4.30
2019-05-29T10:19:34.971Z,4.53
2019-05-29T10:22:06.563Z,4.30
2019-05-29T10:24:38.192Z,4.27
2019-05-29T10:27:09.745Z,5.03
2019-05-29T10:29:42.422Z,4.90
2019-05-29T10:32:14.071Z,7.20
2019-05-29T10:34:46.311Z,5.43
2019-05-29T10:37:18.378Z,4.70
2019-05-29T10:39:51.332Z,4.83
2019-05-29T10:42:22.934Z,5.10
2019-05-29T10:44:54.638Z,5.77
2019-05-29T10:47:26.226Z,6.80
2019-05-29T10:49:57.827Z,5.63
2019-05-29T10:52:29.413Z,5.23
2019-05-29T10:55:01.017Z,4.80
2019-05-29T10:57:32.656Z,5.07
2019-05-29T11:00:04.661Z,6.30
2019-05-29T11:02:36.524Z,5.15
2019-05-29T11:05:08.365Z,5.33
2019-05-29T11:07:41.037Z,4.20
2019-05-29T11:10:14.702Z,4.47
2019-05-29T11:12:46.474Z,4.53
2019-05-29T11:15:21.794Z,5.00
2019-05-29T11:17:53.253Z,4.93
2019-05-29T11:20:25.912Z,5.35
2019-05-29T11:22:57.823Z,4.00
2019-05-29T11:25:29.766Z,3.20
2019-05-29T11:28:01.365Z,2.70
2019-05-29T11:30:34.035Z,3.87
2019-05-29T11:33:05.646Z,3.23
2019-05-29T11:35:37.271Z,2.70
2019-05-29T11:38:08.862Z,2.07
2019-05-29T11:40:40.652Z,3.43
2019-05-29T11:43:12.280Z,2.40
2019-05-29T11:45:43.859Z,2.80
2019-05-29T11:48:15.585Z,2.70
2019-05-29T11:50:47.270Z,2.53
2019-05-29T11:53:18.873Z,2.80
2019-05-29T11:55:52.497Z,3.60
2019-05-29T11:58:30.946Z,3.13
2019-05-29T12:00:57.241Z,2.97
2019-05-29T12:03:28.908Z,4.70
2019-05-29T12:06:02.993Z,3.07
2019-05-29T12:08:33.817Z,3.10
2019-05-29T12:11:07.147Z,3.07
2019-05-29T12:13:39.479Z,3.10
2019-05-29T12:16:11.174Z,3.37
2019-05-29T12:18:42.771Z,3.23
2019-05-29T12:21:14.332Z,3.30
2019-05-29T12:23:45.929Z,3.70
2019-05-29T12:26:22.795Z,2.73
2019-05-29T12:28:50.813Z,3.10
2019-05-29T12:31:22.409Z,3.37
2019-05-29T12:33:55.004Z,2.93
2019-05-29T12:36:26.816Z,3.20
2019-05-29T12:38:59.643Z,7.03
2019-05-29T12:41:31.270Z,4.80
2019-05-29T12:44:03.635Z,5.53
2019-05-29T12:46:35.322Z,3.60
2019-05-29T12:49:07.044Z,4.27
2019-05-29T12:51:38.633Z,4.40
2019-05-29T12:54:10.212Z,4.97
2019-05-29T12:56:41.779Z,3.90
2019-05-29T12:59:14.462Z,3.60
2019-05-29T13:01:46.185Z,4.73
2019-05-29T13:04:17.762Z,4.30
2019-05-29T13:06:49.352Z,4.43
2019-05-29T13:09:20.964Z,4.30
2019-05-29T13:11:52.714Z,3.87
2019-05-29T13:14:24.264Z,4.63
2019-05-29T13:16:56.662Z,4.27
2019-05-29T13:19:28.420Z,3.50
2019-05-29T13:22:01.408Z,3.90
2019-05-29T13:24:34.267Z,3.93
2019-05-29T13:27:06.333Z,4.33
2019-05-29T13:29:37.966Z,5.17
2019-05-29T13:32:09.773Z,4.27
2019-05-29T13:34:41.350Z,4.53
2019-05-29T13:37:13.025Z,4.07
2019-05-29T13:39:44.651Z,5.47
2019-05-29T13:42:16.316Z,4.13
2019-05-29T13:44:47.907Z,3.53
2019-05-29T13:47:19.555Z,5.00
2019-05-29T13:49:51.169Z,4.67
2019-05-29T13:52:22.770Z,4.67
2019-05-29T13:54:54.365Z,3.17
2019-05-29T13:57:25.962Z,3.37
2019-05-29T13:59:57.879Z,4.20
2019-05-29T14:02:29.509Z,3.70
2019-05-29T14:05:02.829Z,4.43
2019-05-29T14:07:34.601Z,3.83
2019-05-29T14:10:07.812Z,3.70
2019-05-29T14:12:39.801Z,5.13
2019-05-29T14:15:12.487Z,5.57
2019-05-29T14:17:44.220Z,4.27
2019-05-29T14:20:17.595Z,4.27
2019-05-29T14:22:49.384Z,5.90
2019-05-29T14:25:20.964Z,4.63
2019-05-29T14:27:52.555Z,4.63
2019-05-29T14:30:24.537Z,7.50
2019-05-29T14:32:56.154Z,4.57
2019-05-29T14:35:27.722Z,4.13
2019-05-29T14:37:59.312Z,4.03
2019-05-29T14:40:30.899Z,4.40
2019-05-29T14:43:05.500Z,4.47
2019-05-29T14:45:35.809Z,3.73
2019-05-29T14:48:08.167Z,5.42
2019-05-29T14:50:39.849Z,4.20
2019-05-29T14:53:13.352Z,4.23
2019-05-29T14:55:44.868Z,4.17
2019-05-29T14:58:16.447Z,3.50
2019-05-29T15:00:48.046Z,3.53
2019-05-29T15:03:19.619Z,4.17
2019-05-29T15:05:51.233Z,5.47
2019-05-29T15:08:23.026Z,4.43
2019-05-29T15:10:54.655Z,4.70
2019-05-29T15:13:26.222Z,5.20
2019-05-29T15:15:57.798Z,9.13
2019-05-29T15:18:29.410Z,5.10
2019-05-29T15:21:00.958Z,5.50
2019-05-29T15:23:32.670Z,6.33
2019-05-29T15:26:05.431Z,5.87
2019-05-29T15:28:37.174Z,5.90
2019-05-29T15:31:08.759Z,6.47
2019-05-29T15:33:40.376Z,6.20
2019-05-29T15:36:13.227Z,6.60
2019-05-29T15:38:44.977Z,8.43
2019-05-29T15:41:16.953Z,8.50
2019-05-29T15:43:49.364Z,7.37
2019-05-29T15:46:21.061Z,7.00
2019-05-29T15:48:52.698Z,7.93
2019-05-29T15:51:24.261Z,8.50
2019-05-29T15:53:55.884Z,8.83
2019-05-29T15:56:28.402Z,10.10
2019-05-29T15:59:00.173Z,10.37
2019-05-29T16:01:31.818Z,10.30
2019-05-29T16:04:03.413Z,10.20
2019-05-29T16:06:35.030Z,9.73
2019-05-29T16:09:10.228Z,9.20
2019-05-29T16:11:41.853Z,8.63
2019-05-29T16:14:14.839Z,10.57
2019-05-29T16:16:47.600Z,9.03
2019-05-29T16:19:19.197Z,10.10
2019-05-29T16:21:50.814Z,10.00
2019-05-29T16:24:23.003Z,9.77
2019-05-29T16:27:07.966Z,9.60
2019-05-29T16:29:29.511Z,10.33
2019-05-29T16:32:01.124Z,10.70
2019-05-29T16:34:32.738Z,10.50
2019-05-29T16:37:04.364Z,11.07
2019-05-29T16:39:35.991Z,10.87
2019-05-29T16:42:07.640Z,11.60
2019-05-29T16:44:40.246Z,9.80
2019-05-29T16:47:12.498Z,12.30
2019-05-29T16:49:44.255Z,11.63
2019-05-29T16:52:16.911Z,9.90
2019-05-29T16:54:48.532Z,11.00
2019-05-29T16:57:21.230Z,10.70
2019-05-29T16:59:52.910Z,10.43
2019-05-29T17:02:24.469Z,9.33
2019-05-29T17:04:58.264Z,9.30
2019-05-29T17:07:29.422Z,11.33
2019-05-29T17:10:01.035Z,9.83
2019-05-29T17:12:32.686Z,10.20
2019-05-29T17:15:04.630Z,11.10
2019-05-29T17:17:36.441Z,10.87
2019-05-29T17:20:08.681Z,11.10
2019-05-29T17:22:40.296Z,11.33
2019-05-29T17:25:12.258Z,11.60
2019-05-29T17:27:43.883Z,11.20
2019-05-29T17:30:18.832Z,11.60
2019-05-29T17:32:50.624Z,11.23
2019-05-29T17:35:23.151Z,10.17
2019-05-29T17:37:54.894Z,10.00
2019-05-29T17:40:26.606Z,11.03
2019-05-29T17:42:58.144Z,10.50
2019-05-29T17:45:29.777Z,11.77
2019-05-29T17:48:01.446Z,11.17
2019-05-29T17:50:33.137Z,11.30
2019-05-29T17:53:04.907Z,15.70
2019-05-29T17:55:36.519Z,16.90
2019-05-29T17:58:08.133Z,21.10
2019-05-29T18:00:39.724Z,16.97
2019-05-29T18:03:11.408Z,9.90
2019-05-29T18:05:43.028Z,11.40
2019-05-29T18:08:14.749Z,10.57
2019-05-29T18:10:46.438Z,10.10
2019-05-29T18:13:19.065Z,10.43
2019-05-29T18:15:51.888Z,10.70
2019-05-29T18:18:23.603Z,10.00
2019-05-29T18:20:55.164Z,10.20
2019-05-29T18:23:28.211Z,10.00
2019-05-29T18:25:59.911Z,8.43
2019-05-29T18:28:31.514Z,9.20
2019-05-29T18:31:03.092Z,9.17
2019-05-29T18:33:34.681Z,9.70
2019-05-29T18:36:06.255Z,8.60
2019-05-29T18:38:37.896Z,9.27
2019-05-29T18:41:09.508Z,8.63
2019-05-29T18:43:41.144Z,9.50
2019-05-29T18:46:12.717Z,8.77
2019-05-29T18:48:44.346Z,9.03
2019-05-29T18:51:15.934Z,9.27
2019-05-29T18:53:48.626Z,9.70
2019-05-29T18:56:20.256Z,9.90
2019-05-29T18:58:51.856Z,8.40
2019-05-29T19:01:23.590Z,9.50
2019-05-29T19:03:55.159Z,8.53
2019-05-29T19:06:27.659Z,8.77
2019-05-29T19:08:59.456Z,10.20
2019-05-29T19:11:32.010Z,9.70
2019-05-29T19:14:03.737Z,8.80
2019-05-29T19:16:37.452Z,9.50
2019-05-29T19:19:08.724Z,10.40
2019-05-29T19:21:40.356Z,14.60
2019-05-29T19:24:11.957Z,12.67
2019-05-29T19:26:43.568Z,10.47
2019-05-29T19:29:15.151Z,11.03
2019-05-29T19:31:46.748Z,10.03
2019-05-29T19:34:18.362Z,10.13
2019-05-29T19:36:49.992Z,10.50
2019-05-29T19:39:21.584Z,10.90
2019-05-29T19:41:53.237Z,10.47
2019-05-29T19:44:26.173Z,10.43
2019-05-29T19:46:57.872Z,11.97
2019-05-29T19:49:29.481Z,10.20
2019-05-29T19:52:01.123Z,14.70
2019-05-29T19:54:33.665Z,18.10
2019-05-29T19:57:05.379Z,9.60
2019-05-29T19:59:36.983Z,10.47
2019-05-29T20:02:10.276Z,8.90
2019-05-29T20:04:41.953Z,12.50
2019-05-29T20:07:13.658Z,10.27
2019-05-29T20:09:45.279Z,8.90
2019-05-29T20:12:16.916Z,15.10
2019-05-29T20:14:48.533Z,13.80
2019-05-29T20:17:20.192Z,29.97
2019-05-29T20:19:51.816Z,16.30
2019-05-29T20:22:23.444Z,16.40
2019-05-29T20:24:55.037Z,31.00
2019-05-29T20:27:26.635Z,30.00
2019-05-29T20:29:58.287Z,20.20
2019-05-29T20:32:30.523Z,15.57
2019-05-29T20:35:02.273Z,11.80
2019-05-29T20:37:34.110Z,20.80
2019-05-29T20:40:06.197Z,12.10
2019-05-29T20:42:38.505Z,33.60
2019-05-29T20:45:10.551Z,16.20
2019-05-29T20:47:42.245Z,11.73
2019-05-29T20:50:14.593Z,14.03
2019-05-29T20:52:46.167Z,18.97
2019-05-29T20:55:19.052Z,13.00
2019-05-29T20:57:50.782Z,12.60
2019-05-29T21:00:22.741Z,14.90
2019-05-29T21:02:54.353Z,13.73
2019-05-29T21:05:25.958Z,12.43
2019-05-29T21:07:57.560Z,13.33
2019-05-29T21:10:29.182Z,12.33
2019-05-29T21:13:00.755Z,13.67
2019-05-29T21:15:33.504Z,13.77
2019-05-29T21:18:05.295Z,13.10
2019-05-29T21:20:38.247Z,12.60
2019-05-29T21:23:10.130Z,11.87
2019-05-29T21:25:42.829Z,11.80
2019-05-29T21:28:14.586Z,12.67
2019-05-29T21:30:46.247Z,116.93
2019-05-29T21:33:17.819Z,124.67
2019-05-29T21:35:49.430Z,23.80
2019-05-29T21:38:21.063Z,12.73
2019-05-29T21:40:52.680Z,12.67
2019-05-29T21:43:24.291Z,12.57
2019-05-29T21:45:56.408Z,16.00
2019-05-29T21:48:28.035Z,14.00
2019-05-29T21:51:00.681Z,12.03
2019-05-29T21:53:32.347Z,12.77
2019-05-29T21:56:03.940Z,12.00
2019-05-29T21:58:35.562Z,14.63
2019-05-29T22:01:07.342Z,12.97
2019-05-29T22:03:40.226Z,12.97
2019-05-29T22:06:11.916Z,13.70
2019-05-29T22:08:43.479Z,13.30
2019-05-29T22:11:15.095Z,12.93
2019-05-29T22:13:46.660Z,14.40
2019-05-29T22:16:18.261Z,14.63
2019-05-29T22:18:50.789Z,13.23
2019-05-29T22:21:22.448Z,11.80
2019-05-29T22:23:55.120Z,13.30
2019-05-29T22:26:26.900Z,12.40
2019-05-29T22:29:15.272Z,12.20
2019-05-29T22:31:31.831Z,12.43
2019-05-29T22:34:03.554Z,11.13
2019-05-29T22:36:35.112Z,10.53
2019-05-29T22:39:07.938Z,10.63
2019-05-29T22:41:39.534Z,11.10
2019-05-29T22:44:11.166Z,15.37
2019-05-29T22:46:42.911Z,9.90
2019-05-29T22:49:14.495Z,10.93
2019-05-29T22:51:46.178Z,12.57
2019-05-29T22:54:17.788Z,10.00
2019-05-29T22:56:49.371Z,13.20
2019-05-29T22:59:31.512Z,10.73
2019-05-29T23:01:54.287Z,15.93
2019-05-29T23:04:25.870Z,19.23
2019-05-29T23:06:58.340Z,18.53
2019-05-29T23:09:30.045Z,18.40
2019-05-29T23:12:02.527Z,21.10
2019-05-29T23:14:34.110Z,13.77
2019-05-29T23:17:05.713Z,15.47
2019-05-29T23:19:37.303Z,17.87
2019-05-29T23:22:08.895Z,25.13
2019-05-29T23:24:40.489Z,15.30
2019-05-29T23:27:12.089Z,17.73
2019-05-29T23:29:49.016Z,25.53
2019-05-29T23:32:16.981Z,33.07
2019-05-29T23:34:48.612Z,18.00
2019-05-29T23:37:20.229Z,20.47
2019-05-29T23:39:53.007Z,38.97
2019-05-29T23:42:24.722Z,27.30
2019-05-29T23:44:57.537Z,27.77
2019-05-29T23:47:29.257Z,27.27
2019-05-29T23:50:02.759Z,28.77
2019-05-29T23:52:34.109Z,21.10
2019-05-29T23:55:05.858Z,34.53
2019-05-29T23:57:37.633Z,36.60
